sensor_id;sensor_type;location;lat;lon;timestamp;pressure;altitude;pressure_sealevel;temperature;humidity
59686;BME280;45554;51.096;16.976;2024-03-17T00:02:08;100650.37;;;4.63;81.23
59686;BME280;45554;51.096;16.976;2024-03-17T00:04:36;100651.32;;;4.60;81.32
59686;BME280;45554;51.096;16.976;2024-03-17T00:07:04;100653.27;;;4.58;81.41
59686;BME280;45554;51.096;16.976;2024-03-17T00:09:31;100652.28;;;4.57;81.43
59686;BME280;45554;51.096;16.976;2024-03-17T00:11:59;100656.52;;;4.53;81.45
59686;BME280;45554;51.096;16.976;2024-03-17T00:14:27;100649.84;;;4.49;81.60
59686;BME280;45554;51.096;16.976;2024-03-17T00:16:55;100653.04;;;4.46;81.82
59686;BME280;45554;51.096;16.976;2024-03-17T00:19:23;100653.64;;;4.43;81.54
59686;BME280;45554;51.096;16.976;2024-03-17T00:21:54;100655.44;;;4.40;81.88
59686;BME280;45554;51.096;16.976;2024-03-17T00:24:22;100657.25;;;4.36;81.71
59686;BME280;45554;51.096;16.976;2024-03-17T00:26:53;100658.03;;;4.33;82.35
59686;BME280;45554;51.096;16.976;2024-03-17T00:29:21;100658.24;;;4.31;82.46
59686;BME280;45554;51.096;16.976;2024-03-17T00:31:48;100662.45;;;4.29;82.41
59686;BME280;45554;51.096;16.976;2024-03-17T00:34:19;100659.52;;;4.28;82.52
59686;BME280;45554;51.096;16.976;2024-03-17T00:36:46;100669.10;;;4.26;82.80
59686;BME280;45554;51.096;16.976;2024-03-17T00:39:14;100668.91;;;4.27;82.63
59686;BME280;45554;51.096;16.976;2024-03-17T00:41:44;100666.34;;;4.26;82.69
59686;BME280;45554;51.096;16.976;2024-03-17T00:44:12;100667.23;;;4.25;82.75
59686;BME280;45554;51.096;16.976;2024-03-17T00:46:40;100667.77;;;4.24;82.74
59686;BME280;45554;51.096;16.976;2024-03-17T00:49:09;100668.65;;;4.23;82.70
59686;BME280;45554;51.096;16.976;2024-03-17T00:51:38;100670.82;;;4.19;82.69
59686;BME280;45554;51.096;16.976;2024-03-17T00:54:05;100671.19;;;4.19;82.92
59686;BME280;45554;51.096;16.976;2024-03-17T00:56:33;100670.36;;;4.17;82.96
59686;BME280;45554;51.096;16.976;2024-03-17T00:59:01;100666.27;;;4.14;82.97
59686;BME280;45554;51.096;16.976;2024-03-17T01:01:28;100670.45;;;4.12;82.80
59686;BME280;45554;51.096;16.976;2024-03-17T01:03:56;100667.20;;;4.11;82.93
59686;BME280;45554;51.096;16.976;2024-03-17T01:06:24;100663.77;;;4.09;83.07
59686;BME280;45554;51.096;16.976;2024-03-17T01:08:58;100663.98;;;4.07;82.48
59686;BME280;45554;51.096;16.976;2024-03-17T01:11:25;100664.55;;;4.05;82.90
59686;BME280;45554;51.096;16.976;2024-03-17T01:13:56;100668.23;;;4.03;83.04
59686;BME280;45554;51.096;16.976;2024-03-17T01:16:24;100664.81;;;4.01;83.04
59686;BME280;45554;51.096;16.976;2024-03-17T01:19:03;100664.68;;;3.99;83.25
59686;BME280;45554;51.096;16.976;2024-03-17T01:23:01;100667.86;;;3.96;83.18
59686;BME280;45554;51.096;16.976;2024-03-17T01:25:51;100666.38;;;3.93;83.29
59686;BME280;45554;51.096;16.976;2024-03-17T01:28:58;100671.11;;;3.90;83.61
59686;BME280;45554;51.096;16.976;2024-03-17T01:32:14;100668.02;;;3.88;83.41
59686;BME280;45554;51.096;16.976;2024-03-17T01:35:27;100672.58;;;3.86;83.34
59686;BME280;45554;51.096;16.976;2024-03-17T01:39:07;100670.25;;;3.81;83.40
59686;BME280;45554;51.096;16.976;2024-03-17T01:42:13;100669.45;;;3.78;83.32
59686;BME280;45554;51.096;16.976;2024-03-17T01:48:19;100671.55;;;3.69;83.68
59686;BME280;45554;51.096;16.976;2024-03-17T01:51:32;100678.89;;;3.65;83.57
59686;BME280;45554;51.096;16.976;2024-03-17T01:54:43;100679.65;;;3.62;83.96
59686;BME280;45554;51.096;16.976;2024-03-17T01:57:33;100678.14;;;3.59;83.90
59686;BME280;45554;51.096;16.976;2024-03-17T02:00:50;100680.80;;;3.56;84.04
59686;BME280;45554;51.096;16.976;2024-03-17T02:03:37;100672.06;;;3.51;84.07
59686;BME280;45554;51.096;16.976;2024-03-17T02:06:34;100680.58;;;3.50;84.36
59686;BME280;45554;51.096;16.976;2024-03-17T02:09:54;100693.79;;;3.48;84.70
59686;BME280;45554;51.096;16.976;2024-03-17T02:12:53;100691.07;;;3.45;84.84
59686;BME280;45554;51.096;16.976;2024-03-17T02:16:32;100694.95;;;3.41;84.83
59686;BME280;45554;51.096;16.976;2024-03-17T02:24:31;100688.11;;;3.28;85.24
59686;BME280;45554;51.096;16.976;2024-03-17T02:27:36;100691.40;;;3.27;85.23
59686;BME280;45554;51.096;16.976;2024-03-17T02:35:48;100695.92;;;3.16;85.37
59686;BME280;45554;51.096;16.976;2024-03-17T02:43:12;100704.55;;;3.08;86.15
59686;BME280;45554;51.096;16.976;2024-03-17T02:45:40;100703.04;;;3.05;85.91
59686;BME280;45554;51.096;16.976;2024-03-17T02:48:08;100699.98;;;3.02;86.03
59686;BME280;45554;51.096;16.976;2024-03-17T02:50:38;100704.14;;;3.00;85.95
59686;BME280;45554;51.096;16.976;2024-03-17T02:53:05;100706.99;;;2.96;86.11
59686;BME280;45554;51.096;16.976;2024-03-17T02:55:33;100708.59;;;2.94;86.07
59686;BME280;45554;51.096;16.976;2024-03-17T02:58:01;100711.05;;;2.92;86.16
59686;BME280;45554;51.096;16.976;2024-03-17T03:00:28;100714.20;;;2.89;86.24
59686;BME280;45554;51.096;16.976;2024-03-17T03:02:57;100716.70;;;2.85;86.33
59686;BME280;45554;51.096;16.976;2024-03-17T03:05:26;100718.29;;;2.83;86.35
59686;BME280;45554;51.096;16.976;2024-03-17T03:07:56;100717.10;;;2.81;86.53
59686;BME280;45554;51.096;16.976;2024-03-17T03:10:24;100720.60;;;2.79;86.28
59686;BME280;45554;51.096;16.976;2024-03-17T03:12:52;100721.14;;;2.78;86.31
59686;BME280;45554;51.096;16.976;2024-03-17T03:15:20;100721.55;;;2.74;86.00
59686;BME280;45554;51.096;16.976;2024-03-17T03:17:48;100718.33;;;2.71;86.40
59686;BME280;45554;51.096;16.976;2024-03-17T03:20:16;100720.77;;;2.68;86.19
59686;BME280;45554;51.096;16.976;2024-03-17T03:22:43;100719.59;;;2.66;86.43
59686;BME280;45554;51.096;16.976;2024-03-17T03:25:11;100715.61;;;2.65;86.51
59686;BME280;45554;51.096;16.976;2024-03-17T03:27:39;100715.29;;;2.64;86.47
59686;BME280;45554;51.096;16.976;2024-03-17T03:30:11;100716.18;;;2.62;86.41
59686;BME280;45554;51.096;16.976;2024-03-17T03:32:39;100710.59;;;2.54;86.28
59686;BME280;45554;51.096;16.976;2024-03-17T03:35:06;100716.42;;;2.57;86.23
59686;BME280;45554;51.096;16.976;2024-03-17T03:37:34;100713.52;;;2.54;86.08
59686;BME280;45554;51.096;16.976;2024-03-17T03:40:05;100709.44;;;2.51;86.03
59686;BME280;45554;51.096;16.976;2024-03-17T03:42:45;100717.27;;;2.47;86.05
59686;BME280;45554;51.096;16.976;2024-03-17T03:45:18;100719.73;;;2.44;86.10
59686;BME280;45554;51.096;16.976;2024-03-17T03:47:47;100714.94;;;2.41;86.05
59686;BME280;45554;51.096;16.976;2024-03-17T03:50:19;100718.42;;;2.38;86.03
59686;BME280;45554;51.096;16.976;2024-03-17T03:52:47;100716.05;;;2.36;85.89
59686;BME280;45554;51.096;16.976;2024-03-17T03:55:15;100716.94;;;2.34;85.83
59686;BME280;45554;51.096;16.976;2024-03-17T03:57:44;100715.23;;;2.31;86.05
59686;BME280;45554;51.096;16.976;2024-03-17T04:00:15;100715.27;;;2.29;86.06
59686;BME280;45554;51.096;16.976;2024-03-17T04:02:43;100717.55;;;2.27;85.84
59686;BME280;45554;51.096;16.976;2024-03-17T04:05:11;100720.02;;;2.24;86.01
59686;BME280;45554;51.096;16.976;2024-03-17T04:07:38;100723.67;;;2.22;86.22
59686;BME280;45554;51.096;16.976;2024-03-17T04:10:07;100725.27;;;2.19;86.28
59686;BME280;45554;51.096;16.976;2024-03-17T04:12:35;100723.58;;;2.15;86.02
59686;BME280;45554;51.096;16.976;2024-03-17T04:15:03;100727.25;;;2.13;86.21
59686;BME280;45554;51.096;16.976;2024-03-17T04:17:36;100731.60;;;2.10;86.15
59686;BME280;45554;51.096;16.976;2024-03-17T04:20:06;100731.15;;;2.07;86.29
59686;BME280;45554;51.096;16.976;2024-03-17T04:22:35;100730.11;;;2.04;86.55
59686;BME280;45554;51.096;16.976;2024-03-17T04:25:04;100732.91;;;2.02;86.54
59686;BME280;45554;51.096;16.976;2024-03-17T04:27:32;100736.89;;;2.01;86.54
59686;BME280;45554;51.096;16.976;2024-03-17T04:30:00;100736.94;;;1.99;86.81
59686;BME280;45554;51.096;16.976;2024-03-17T04:32:28;100738.34;;;1.97;86.70
59686;BME280;45554;51.096;16.976;2024-03-17T04:34:56;100738.88;;;1.95;86.47
59686;BME280;45554;51.096;16.976;2024-03-17T04:37:26;100742.71;;;1.92;86.80
59686;BME280;45554;51.096;16.976;2024-03-17T04:39:53;100740.14;;;1.90;87.19
59686;BME280;45554;51.096;16.976;2024-03-17T04:42:25;100746.22;;;1.88;86.85
59686;BME280;45554;51.096;16.976;2024-03-17T04:44:52;100745.20;;;1.86;86.97
59686;BME280;45554;51.096;16.976;2024-03-17T04:47:20;100746.63;;;1.83;87.14
59686;BME280;45554;51.096;16.976;2024-03-17T04:49:48;100752.52;;;1.82;87.24
59686;BME280;45554;51.096;16.976;2024-03-17T04:52:15;100751.15;;;1.79;87.01
59686;BME280;45554;51.096;16.976;2024-03-17T04:54:46;100751.17;;;1.77;87.21
59686;BME280;45554;51.096;16.976;2024-03-17T04:57:16;100752.58;;;1.76;87.29
59686;BME280;45554;51.096;16.976;2024-03-17T04:59:44;100752.94;;;1.75;87.37
59686;BME280;45554;51.096;16.976;2024-03-17T05:02:14;100749.14;;;1.73;87.29
59686;BME280;45554;51.096;16.976;2024-03-17T05:04:42;100749.15;;;1.72;87.16
59686;BME280;45554;51.096;16.976;2024-03-17T05:07:09;100754.16;;;1.72;86.92
59686;BME280;45554;51.096;16.976;2024-03-17T05:09:38;100750.96;;;1.66;86.93
59686;BME280;45554;51.096;16.976;2024-03-17T05:12:06;100755.58;;;1.71;87.03
59686;BME280;45554;51.096;16.976;2024-03-17T05:14:33;100753.85;;;1.70;86.74
59686;BME280;45554;51.096;16.976;2024-03-17T05:17:03;100758.86;;;1.70;87.09
59686;BME280;45554;51.096;16.976;2024-03-17T05:19:31;100753.33;;;1.70;86.81
59686;BME280;45554;51.096;16.976;2024-03-17T05:21:59;100757.80;;;1.70;86.74
59686;BME280;45554;51.096;16.976;2024-03-17T05:24:27;100770.61;;;1.71;86.79
59686;BME280;45554;51.096;16.976;2024-03-17T05:26:55;100769.21;;;1.72;86.53
59686;BME280;45554;51.096;16.976;2024-03-17T05:29:22;100768.00;;;1.72;86.32
59686;BME280;45554;51.096;16.976;2024-03-17T05:31:50;100768.67;;;1.73;86.26
59686;BME280;45554;51.096;16.976;2024-03-17T05:34:22;100772.13;;;1.74;86.24
59686;BME280;45554;51.096;16.976;2024-03-17T05:36:51;100774.86;;;1.77;86.23
59686;BME280;45554;51.096;16.976;2024-03-17T05:39:19;100770.86;;;1.80;86.16
59686;BME280;45554;51.096;16.976;2024-03-17T05:41:48;100776.36;;;1.82;85.63
59686;BME280;45554;51.096;16.976;2024-03-17T05:44:16;100776.67;;;1.85;85.59
59686;BME280;45554;51.096;16.976;2024-03-17T05:46:44;100781.98;;;1.88;85.36
59686;BME280;45554;51.096;16.976;2024-03-17T05:49:12;100785.60;;;1.91;85.22
59686;BME280;45554;51.096;16.976;2024-03-17T05:51:39;100794.19;;;1.95;85.07
59686;BME280;45554;51.096;16.976;2024-03-17T05:54:07;100787.06;;;1.99;84.80
59686;BME280;45554;51.096;16.976;2024-03-17T05:56:35;100793.41;;;2.03;84.49
59686;BME280;45554;51.096;16.976;2024-03-17T05:59:03;100789.91;;;2.08;84.36
59686;BME280;45554;51.096;16.976;2024-03-17T06:01:30;100791.42;;;2.12;83.95
59686;BME280;45554;51.096;16.976;2024-03-17T06:03:58;100787.05;;;2.15;83.83
59686;BME280;45554;51.096;16.976;2024-03-17T06:06:27;100785.44;;;2.20;83.79
59686;BME280;45554;51.096;16.976;2024-03-17T06:08:54;100781.23;;;2.24;83.62
59686;BME280;45554;51.096;16.976;2024-03-17T06:11:22;100780.49;;;2.29;83.30
59686;BME280;45554;51.096;16.976;2024-03-17T06:13:50;100781.80;;;2.34;83.16
59686;BME280;45554;51.096;16.976;2024-03-17T06:16:18;100783.48;;;2.38;82.65
59686;BME280;45554;51.096;16.976;2024-03-17T06:18:47;100781.53;;;2.42;82.47
59686;BME280;45554;51.096;16.976;2024-03-17T06:21:18;100791.33;;;2.47;82.11
59686;BME280;45554;51.096;16.976;2024-03-17T06:23:45;100801.47;;;2.52;81.84
59686;BME280;45554;51.096;16.976;2024-03-17T06:26:13;100796.05;;;2.56;81.43
59686;BME280;45554;51.096;16.976;2024-03-17T06:28:41;100799.80;;;2.60;81.48
59686;BME280;45554;51.096;16.976;2024-03-17T06:31:08;100805.63;;;2.65;81.21
59686;BME280;45554;51.096;16.976;2024-03-17T06:33:37;100807.98;;;2.70;81.06
59686;BME280;45554;51.096;16.976;2024-03-17T06:36:05;100812.59;;;2.74;80.85
59686;BME280;45554;51.096;16.976;2024-03-17T06:38:33;100815.27;;;2.80;80.76
59686;BME280;45554;51.096;16.976;2024-03-17T06:41:02;100821.95;;;2.85;80.64
59686;BME280;45554;51.096;16.976;2024-03-17T06:43:31;100830.20;;;2.90;80.23
59686;BME280;45554;51.096;16.976;2024-03-17T06:46:00;100835.67;;;2.94;79.99
59686;BME280;45554;51.096;16.976;2024-03-17T06:48:29;100834.94;;;2.98;79.67
59686;BME280;45554;51.096;16.976;2024-03-17T06:50:57;100833.83;;;3.03;79.69
59686;BME280;45554;51.096;16.976;2024-03-17T06:53:26;100829.94;;;3.08;79.57
59686;BME280;45554;51.096;16.976;2024-03-17T06:55:58;100840.79;;;3.12;79.13
59686;BME280;45554;51.096;16.976;2024-03-17T06:58:27;100834.30;;;3.18;79.18
59686;BME280;45554;51.096;16.976;2024-03-17T07:00:59;100843.04;;;3.23;78.91
59686;BME280;45554;51.096;16.976;2024-03-17T07:03:30;100837.91;;;3.30;78.90
59686;BME280;45554;51.096;16.976;2024-03-17T07:06:00;100837.63;;;3.37;79.05
59686;BME280;45554;51.096;16.976;2024-03-17T07:08:32;100845.83;;;3.45;78.35
59686;BME280;45554;51.096;16.976;2024-03-17T07:11:04;100854.36;;;3.53;77.64
59686;BME280;45554;51.096;16.976;2024-03-17T07:13:34;100847.13;;;3.60;76.32
59686;BME280;45554;51.096;16.976;2024-03-17T07:16:03;100845.26;;;3.68;76.39
59686;BME280;45554;51.096;16.976;2024-03-17T07:18:34;100834.69;;;3.78;76.61
59686;BME280;45554;51.096;16.976;2024-03-17T07:21:04;100842.14;;;3.88;75.86
59686;BME280;45554;51.096;16.976;2024-03-17T07:23:32;100835.69;;;3.99;75.54
59686;BME280;45554;51.096;16.976;2024-03-17T07:26:02;100845.38;;;4.10;75.47
59686;BME280;45554;51.096;16.976;2024-03-17T07:28:32;100845.40;;;4.17;73.89
59686;BME280;45554;51.096;16.976;2024-03-17T07:31:00;100839.95;;;4.21;73.94
59686;BME280;45554;51.096;16.976;2024-03-17T07:33:28;100848.06;;;4.32;73.63
59686;BME280;45554;51.096;16.976;2024-03-17T07:35:57;100847.27;;;4.37;72.91
59686;BME280;45554;51.096;16.976;2024-03-17T07:38:28;100860.00;;;4.43;72.48
59686;BME280;45554;51.096;16.976;2024-03-17T07:41:06;100845.27;;;4.50;72.38
59686;BME280;45554;51.096;16.976;2024-03-17T07:43:38;100838.88;;;4.57;71.92
59686;BME280;45554;51.096;16.976;2024-03-17T07:46:11;100843.40;;;4.65;71.76
59686;BME280;45554;51.096;16.976;2024-03-17T07:48:41;100836.91;;;4.75;71.70
59686;BME280;45554;51.096;16.976;2024-03-17T07:51:10;100845.61;;;4.83;70.92
59686;BME280;45554;51.096;16.976;2024-03-17T07:53:40;100847.34;;;4.84;70.58
59686;BME280;45554;51.096;16.976;2024-03-17T07:56:10;100845.38;;;4.86;70.52
59686;BME280;45554;51.096;16.976;2024-03-17T07:58:43;100848.41;;;4.91;70.40
59686;BME280;45554;51.096;16.976;2024-03-17T08:01:15;100839.08;;;4.96;70.75
59686;BME280;45554;51.096;16.976;2024-03-17T08:03:46;100850.93;;;5.02;69.11
59686;BME280;45554;51.096;16.976;2024-03-17T08:06:16;100846.55;;;5.04;68.84
59686;BME280;45554;51.096;16.976;2024-03-17T08:08:44;100854.27;;;5.08;68.26
59686;BME280;45554;51.096;16.976;2024-03-17T08:11:12;100847.41;;;5.12;67.29
59686;BME280;45554;51.096;16.976;2024-03-17T08:13:40;100850.64;;;5.14;66.69
59686;BME280;45554;51.096;16.976;2024-03-17T08:16:08;100861.10;;;5.20;65.80
59686;BME280;45554;51.096;16.976;2024-03-17T08:18:37;100850.70;;;5.27;65.61
59686;BME280;45554;51.096;16.976;2024-03-17T08:21:05;100843.77;;;5.33;65.77
59686;BME280;45554;51.096;16.976;2024-03-17T08:23:33;100853.81;;;5.35;64.83
59686;BME280;45554;51.096;16.976;2024-03-17T08:26:05;100855.77;;;5.33;64.04
59686;BME280;45554;51.096;16.976;2024-03-17T08:28:33;100835.41;;;5.34;64.88
59686;BME280;45554;51.096;16.976;2024-03-17T08:31:02;100830.25;;;5.32;65.12
59686;BME280;45554;51.096;16.976;2024-03-17T08:33:30;100839.02;;;5.36;64.13
59686;BME280;45554;51.096;16.976;2024-03-17T08:36:04;100843.48;;;5.38;63.66
59686;BME280;45554;51.096;16.976;2024-03-17T08:38:33;100834.21;;;5.40;63.55
59686;BME280;45554;51.096;16.976;2024-03-17T08:41:06;100844.33;;;5.46;63.02
59686;BME280;45554;51.096;16.976;2024-03-17T08:43:35;100841.83;;;5.49;61.81
59686;BME280;45554;51.096;16.976;2024-03-17T08:46:04;100842.66;;;5.57;61.35
59686;BME280;45554;51.096;16.976;2024-03-17T08:48:35;100833.94;;;5.65;61.51
59686;BME280;45554;51.096;16.976;2024-03-17T08:51:05;100831.98;;;5.74;61.95
59686;BME280;45554;51.096;16.976;2024-03-17T08:53:37;100831.78;;;5.82;61.62
59686;BME280;45554;51.096;16.976;2024-03-17T08:56:09;100824.84;;;5.87;62.15
59686;BME280;45554;51.096;16.976;2024-03-17T08:58:37;100845.31;;;5.90;61.94
59686;BME280;45554;51.096;16.976;2024-03-17T09:01:06;100835.13;;;5.86;61.41
59686;BME280;45554;51.096;16.976;2024-03-17T09:03:35;100835.75;;;5.76;61.05
59686;BME280;45554;51.096;16.976;2024-03-17T09:06:03;100834.77;;;5.74;61.67
59686;BME280;45554;51.096;16.976;2024-03-17T09:08:32;100827.16;;;5.79;62.24
59686;BME280;45554;51.096;16.976;2024-03-17T09:11:01;100830.77;;;5.87;61.79
59686;BME280;45554;51.096;16.976;2024-03-17T09:13:29;100827.20;;;5.90;61.27
59686;BME280;45554;51.096;16.976;2024-03-17T09:16:03;100829.92;;;5.93;61.59
59686;BME280;45554;51.096;16.976;2024-03-17T09:18:33;100828.16;;;6.00;60.94
59686;BME280;45554;51.096;16.976;2024-03-17T09:21:04;100837.08;;;6.06;59.42
59686;BME280;45554;51.096;16.976;2024-03-17T09:23:33;100834.07;;;6.14;58.52
59686;BME280;45554;51.096;16.976;2024-03-17T09:26:03;100826.02;;;6.28;58.44
59686;BME280;45554;51.096;16.976;2024-03-17T09:28:32;100841.02;;;6.46;57.28
59686;BME280;45554;51.096;16.976;2024-03-17T09:31:01;100843.44;;;6.59;55.64
59686;BME280;45554;51.096;16.976;2024-03-17T09:33:30;100837.96;;;6.67;55.05
59686;BME280;45554;51.096;16.976;2024-03-17T09:36:02;100835.81;;;6.69;54.49
59686;BME280;45554;51.096;16.976;2024-03-17T09:38:32;100830.23;;;6.76;54.60
59686;BME280;45554;51.096;16.976;2024-03-17T09:41:00;100822.05;;;6.86;55.53
59686;BME280;45554;51.096;16.976;2024-03-17T09:43:31;100829.88;;;6.93;55.08
59686;BME280;45554;51.096;16.976;2024-03-17T09:46:02;100828.96;;;6.94;54.25
59686;BME280;45554;51.096;16.976;2024-03-17T09:48:29;100820.67;;;6.92;53.29
59686;BME280;45554;51.096;16.976;2024-03-17T09:51:02;100819.03;;;6.88;53.61
59686;BME280;45554;51.096;16.976;2024-03-17T09:53:32;100838.91;;;6.88;53.54
59686;BME280;45554;51.096;16.976;2024-03-17T09:56:03;100826.30;;;6.84;53.53
59686;BME280;45554;51.096;16.976;2024-03-17T09:58:33;100832.00;;;6.80;53.38
59686;BME280;45554;51.096;16.976;2024-03-17T10:01:01;100831.10;;;6.81;53.44
59686;BME280;45554;51.096;16.976;2024-03-17T10:06:14;100813.42;;;6.95;54.11
59686;BME280;45554;51.096;16.976;2024-03-17T10:08:46;100824.61;;;7.05;52.32
59686;BME280;45554;51.096;16.976;2024-03-17T10:11:18;100811.27;;;7.14;52.91
59686;BME280;45554;51.096;16.976;2024-03-17T10:14:06;100815.19;;;7.33;53.31
59686;BME280;45554;51.096;16.976;2024-03-17T10:16:37;100822.67;;;7.44;52.47
59686;BME280;45554;51.096;16.976;2024-03-17T10:19:12;100829.64;;;7.44;52.64
59686;BME280;45554;51.096;16.976;2024-03-17T10:21:44;100810.13;;;7.33;52.74
59686;BME280;45554;51.096;16.976;2024-03-17T10:24:20;100814.21;;;7.31;53.60
59686;BME280;45554;51.096;16.976;2024-03-17T10:26:50;100815.46;;;7.41;53.98
59686;BME280;45554;51.096;16.976;2024-03-17T10:29:35;100810.78;;;7.55;53.70
59686;BME280;45554;51.096;16.976;2024-03-17T10:32:14;100811.95;;;7.72;52.39
59686;BME280;45554;51.096;16.976;2024-03-17T10:34:49;100808.23;;;7.74;51.50
59686;BME280;45554;51.096;16.976;2024-03-17T10:37:20;100815.33;;;7.71;51.07
59686;BME280;45554;51.096;16.976;2024-03-17T10:39:52;100800.57;;;7.68;50.85
59686;BME280;45554;51.096;16.976;2024-03-17T10:42:25;100808.09;;;7.68;50.57
59686;BME280;45554;51.096;16.976;2024-03-17T10:44:56;100810.03;;;7.72;49.83
59686;BME280;45554;51.096;16.976;2024-03-17T10:47:28;100819.66;;;7.76;48.82
59686;BME280;45554;51.096;16.976;2024-03-17T10:49:58;100819.12;;;7.77;48.06
59686;BME280;45554;51.096;16.976;2024-03-17T10:52:27;100804.36;;;7.80;48.42
59686;BME280;45554;51.096;16.976;2024-03-17T10:55:25;100805.02;;;7.86;48.32
59686;BME280;45554;51.096;16.976;2024-03-17T10:57:56;100798.84;;;7.98;47.66
59686;BME280;45554;51.096;16.976;2024-03-17T11:00:30;100806.38;;;8.07;46.79
59686;BME280;45554;51.096;16.976;2024-03-17T11:02:59;100805.43;;;8.19;46.87
59686;BME280;45554;51.096;16.976;2024-03-17T11:05:28;100813.48;;;8.32;46.84
59686;BME280;45554;51.096;16.976;2024-03-17T11:08:01;100807.19;;;8.38;46.24
59686;BME280;45554;51.096;16.976;2024-03-17T11:10:34;100802.31;;;8.46;46.85
59686;BME280;45554;51.096;16.976;2024-03-17T11:13:04;100798.12;;;8.52;47.25
59686;BME280;45554;51.096;16.976;2024-03-17T11:20:38;100794.73;;;8.72;47.21
59686;BME280;45554;51.096;16.976;2024-03-17T11:23:07;100784.52;;;8.83;46.94
59686;BME280;45554;51.096;16.976;2024-03-17T11:25:38;100795.25;;;8.94;46.28
59686;BME280;45554;51.096;16.976;2024-03-17T11:28:07;100785.64;;;8.99;46.30
59686;BME280;45554;51.096;16.976;2024-03-17T11:39:03;100770.09;;;9.24;43.64
59686;BME280;45554;51.096;16.976;2024-03-17T11:46:55;100771.17;;;8.93;44.09
59686;BME280;45554;51.096;16.976;2024-03-17T11:49:40;100768.12;;;8.82;44.23
59686;BME280;45554;51.096;16.976;2024-03-17T11:54:40;100777.96;;;8.71;43.95
59686;BME280;45554;51.096;16.976;2024-03-17T11:57:10;100765.40;;;8.67;43.91
59686;BME280;45554;51.096;16.976;2024-03-17T11:59:39;100767.77;;;8.60;44.27
59686;BME280;45554;51.096;16.976;2024-03-17T12:04:49;100756.52;;;8.62;45.12
59686;BME280;45554;51.096;16.976;2024-03-17T12:07:19;100761.69;;;8.68;44.36
59686;BME280;45554;51.096;16.976;2024-03-17T12:09:51;100757.11;;;8.87;44.51
59686;BME280;45554;51.096;16.976;2024-03-17T12:12:23;100749.30;;;9.07;43.91
59686;BME280;45554;51.096;16.976;2024-03-17T12:14:57;100742.74;;;9.26;43.80
59686;BME280;45554;51.096;16.976;2024-03-17T12:17:53;100741.33;;;9.47;43.12
59686;BME280;45554;51.096;16.976;2024-03-17T12:34:06;100718.42;;;10.67;40.44
59686;BME280;45554;51.096;16.976;2024-03-17T12:38:03;100723.52;;;10.85;38.86
59686;BME280;45554;51.096;16.976;2024-03-17T12:41:17;100712.66;;;11.06;39.19
59686;BME280;45554;51.096;16.976;2024-03-17T12:44:36;100726.88;;;11.30;38.74
59686;BME280;45554;51.096;16.976;2024-03-17T12:47:40;100701.85;;;11.43;38.48
59686;BME280;45554;51.096;16.976;2024-03-17T12:50:39;100704.73;;;11.55;37.62
59686;BME280;45554;51.096;16.976;2024-03-17T12:54:12;100714.80;;;11.84;37.22
59686;BME280;45554;51.096;16.976;2024-03-17T12:57:09;100703.77;;;11.83;36.29
59686;BME280;45554;51.096;16.976;2024-03-17T13:00:32;100706.02;;;11.67;37.01
59686;BME280;45554;51.096;16.976;2024-03-17T13:03:34;100697.02;;;11.65;37.76
59686;BME280;45554;51.096;16.976;2024-03-17T13:06:30;100695.24;;;11.65;37.33
59686;BME280;45554;51.096;16.976;2024-03-17T13:09:20;100698.41;;;11.51;37.54
59686;BME280;45554;51.096;16.976;2024-03-17T13:12:14;100706.80;;;11.08;36.67
59686;BME280;45554;51.096;16.976;2024-03-17T13:14:43;100706.57;;;10.62;36.93
59686;BME280;45554;51.096;16.976;2024-03-17T13:17:15;100708.36;;;10.23;37.73
59686;BME280;45554;51.096;16.976;2024-03-17T13:19:46;100710.42;;;9.93;38.07
59686;BME280;45554;51.096;16.976;2024-03-17T13:22:14;100709.85;;;9.66;38.26
59686;BME280;45554;51.096;16.976;2024-03-17T13:24:42;100699.44;;;9.48;39.09
59686;BME280;45554;51.096;16.976;2024-03-17T13:27:10;100695.37;;;9.70;39.60
59686;BME280;45554;51.096;16.976;2024-03-17T13:29:37;100696.44;;;9.89;39.89
59686;BME280;45554;51.096;16.976;2024-03-17T13:32:06;100692.34;;;10.06;40.25
59686;BME280;45554;51.096;16.976;2024-03-17T13:34:35;100687.04;;;10.33;40.58
59686;BME280;45554;51.096;16.976;2024-03-17T13:37:03;100689.42;;;10.54;40.42
59686;BME280;45554;51.096;16.976;2024-03-17T13:39:31;100690.86;;;10.50;40.18
59686;BME280;45554;51.096;16.976;2024-03-17T13:42:00;100686.45;;;10.43;40.19
59686;BME280;45554;51.096;16.976;2024-03-17T13:44:31;100684.28;;;10.44;40.70
59686;BME280;45554;51.096;16.976;2024-03-17T13:46:59;100684.56;;;10.67;40.62
59686;BME280;45554;51.096;16.976;2024-03-17T13:49:31;100678.52;;;10.83;40.50
59686;BME280;45554;51.096;16.976;2024-03-17T13:51:58;100682.30;;;10.81;40.05
59686;BME280;45554;51.096;16.976;2024-03-17T13:54:26;100694.76;;;10.67;40.11
59686;BME280;45554;51.096;16.976;2024-03-17T13:56:54;100695.80;;;10.37;39.83
59686;BME280;45554;51.096;16.976;2024-03-17T13:59:22;100695.64;;;10.10;40.55
59686;BME280;45554;51.096;16.976;2024-03-17T14:01:50;100696.14;;;9.88;40.91
59686;BME280;45554;51.096;16.976;2024-03-17T14:04:18;100695.48;;;9.91;40.78
59686;BME280;45554;51.096;16.976;2024-03-17T14:06:46;100688.52;;;10.13;40.85
59686;BME280;45554;51.096;16.976;2024-03-17T14:09:16;100682.98;;;10.34;40.12
59686;BME280;45554;51.096;16.976;2024-03-17T14:11:46;100685.74;;;10.50;39.39
59686;BME280;45554;51.096;16.976;2024-03-17T14:14:14;100675.89;;;10.51;39.71
59686;BME280;45554;51.096;16.976;2024-03-17T14:16:42;100676.86;;;10.64;39.71
59686;BME280;45554;51.096;16.976;2024-03-17T14:19:12;100667.40;;;10.81;40.20
59686;BME280;45554;51.096;16.976;2024-03-17T14:21:46;100665.04;;;11.04;40.27